Time;durP1;ratioP1;P1;durP2;ratioP2;P2;SDS_P1;SDS_P2;PMS_P1;PMS_P2;Temp;Humidity;BMP_temperature;BMP_pressure;BME280_temperature;BME280_humidity;BME280_pressure;Samples;Min_cycle;Max_cycle;Signal;HPM_P1;HPM_P2
2023/03/16 00:00:43;;;;;;;7.05;3.58;;;3.60;99.90;;;;;;5084103;28;20040;-74
2023/03/16 00:03:10;;;;;;;7.22;3.30;;;3.70;99.90;;;;;;5083361;28;20037;-74
2023/03/16 00:05:36;;;;;;;9.80;3.75;;;3.70;99.90;;;;;;5082298;28;20280;-74
2023/03/16 00:08:02;;;;;;;8.52;3.75;;;3.70;99.90;;;;;;5066663;28;20397;-74
2023/03/16 00:10:28;;;;;;;6.75;2.83;;;3.70;99.90;;;;;;5083577;28;20043;-73
2023/03/16 00:12:55;;;;;;;7.47;3.40;;;3.70;99.90;;;;;;5086755;28;20043;-73
2023/03/16 00:15:21;;;;;;;7.03;3.47;;;3.70;99.90;;;;;;5067501;28;20044;-73
2023/03/16 00:17:47;;;;;;;11.10;3.63;;;3.80;99.90;;;;;;5070617;28;20127;-73
2023/03/16 00:20:17;;;;;;;7.05;3.25;;;3.80;99.90;;;;;;5089371;28;20123;-74
2023/03/16 00:22:43;;;;;;;6.60;3.33;;;3.80;99.90;;;;;;5093227;28;20551;-73
2023/03/16 00:25:10;;;;;;;6.60;3.40;;;3.80;99.90;;;;;;5101382;28;20093;-74
2023/03/16 00:27:36;;;;;;;8.83;3.20;;;3.80;99.90;;;;;;5085287;28;20036;-74
2023/03/16 00:30:02;;;;;;;9.10;3.17;;;3.90;99.90;;;;;;5071331;28;20326;-74
2023/03/16 00:32:31;;;;;;;8.15;4.15;;;3.80;99.90;;;;;;5087706;28;20507;-74
2023/03/16 00:34:56;;;;;;;8.15;3.30;;;3.90;99.90;;;;;;5095288;28;20064;-74
2023/03/16 00:37:23;;;;;;;9.88;3.47;;;3.90;99.90;;;;;;5100312;28;20075;-74
2023/03/16 00:39:50;;;;;;;7.75;3.45;;;3.90;99.90;;;;;;5102111;28;20067;-74
2023/03/16 00:42:17;;;;;;;6.05;3.22;;;3.80;99.90;;;;;;5095167;28;20056;-73
2023/03/16 00:44:43;;;;;;;6.28;3.47;;;3.80;99.90;;;;;;5087877;28;20040;-74
2023/03/16 00:47:13;;;;;;;6.50;3.45;;;3.80;99.90;;;;;;5080242;28;20055;-74
2023/03/16 00:49:41;;;;;;;6.53;3.33;;;3.80;99.90;;;;;;5084645;28;20081;-74
2023/03/16 00:52:09;;;;;;;6.55;3.28;;;3.80;99.90;;;;;;5082911;28;20066;-74
2023/03/16 00:54:34;;;;;;;7.30;3.13;;;3.80;99.90;;;;;;5082854;28;20124;-74
2023/03/16 00:57:01;;;;;;;8.35;3.20;;;3.80;99.90;;;;;;5081963;28;20126;-74
2023/03/16 00:59:27;;;;;;;6.13;3.20;;;3.80;99.90;;;;;;5081404;28;20392;-74
2023/03/16 01:01:54;;;;;;;8.57;3.58;;;3.80;99.90;;;;;;5080583;28;20379;-74
2023/03/16 01:04:21;;;;;;;9.10;3.85;;;3.90;99.90;;;;;;5077702;28;20096;-74
2023/03/16 01:06:46;;;;;;;7.32;3.25;;;3.80;99.90;;;;;;5082826;28;20095;-74
2023/03/16 01:09:13;;;;;;;7.65;3.40;;;3.80;99.90;;;;;;5082430;28;20036;-74
2023/03/16 01:11:41;;;;;;;7.57;3.50;;;3.80;99.90;;;;;;5082500;28;20083;-74
2023/03/16 01:14:08;;;;;;;7.05;3.05;;;3.80;99.90;;;;;;5088150;28;20113;-74
2023/03/16 01:16:33;;;;;;;7.28;3.20;;;3.80;99.90;;;;;;5108893;28;20146;-74
2023/03/16 01:19:00;;;;;;;7.05;3.63;;;3.80;99.90;;;;;;5092439;28;20063;-74
2023/03/16 01:21:26;;;;;;;7.25;3.20;;;3.80;99.90;;;;;;5100774;28;20122;-74
2023/03/16 01:23:52;;;;;;;6.95;3.38;;;3.70;99.90;;;;;;5112476;28;20039;-73
2023/03/16 01:26:19;;;;;;;8.32;3.30;;;3.70;99.90;;;;;;5094354;28;20126;-73
2023/03/16 01:28:45;;;;;;;6.97;3.08;;;3.70;99.90;;;;;;5103140;28;20035;-73
2023/03/16 01:31:13;;;;;;;5.47;3.42;;;3.70;99.90;;;;;;5091540;28;20491;-74
2023/03/16 01:33:39;;;;;;;6.95;3.20;;;3.70;99.90;;;;;;5083775;28;20048;-74
2023/03/16 01:36:06;;;;;;;5.95;3.25;;;3.70;99.90;;;;;;5088445;28;20032;-74
2023/03/16 01:38:32;;;;;;;6.93;3.70;;;3.60;99.90;;;;;;5087276;28;20131;-74
2023/03/16 01:40:59;;;;;;;5.95;3.67;;;3.60;99.90;;;;;;5070184;28;20750;-75
2023/03/16 01:43:27;;;;;;;6.47;3.22;;;3.60;99.90;;;;;;5066784;28;20452;-74
2023/03/16 01:46:20;;;;;;;8.48;3.58;;;3.60;99.90;;;;;;5066607;28;20047;-74
2023/03/16 01:49:08;;;;;;;8.43;3.60;;;3.60;99.90;;;;;;5070698;28;20407;-75
2023/03/16 01:51:50;;;;;;;6.88;3.33;;;3.60;99.90;;;;;;5085018;28;20393;-74
2023/03/16 01:54:35;;;;;;;7.93;3.17;;;3.50;99.90;;;;;;5080801;28;20047;-74
2023/03/16 01:57:14;;;;;;;6.07;3.15;;;3.50;99.90;;;;;;5064225;28;20410;-74
2023/03/16 02:00:17;;;;;;;6.82;3.55;;;3.50;99.90;;;;;;5081532;28;20128;-74
2023/03/16 02:02:45;;;;;;;4.75;2.92;;;3.50;99.90;;;;;;5080501;28;20046;-74
2023/03/16 02:05:42;;;;;;;5.60;3.38;;;3.50;99.90;;;;;;5063000;28;20036;-74
2023/03/16 02:08:11;;;;;;;4.13;2.80;;;3.60;99.90;;;;;;5078741;28;20445;-74
2023/03/16 02:10:37;;;;;;;6.72;3.28;;;3.60;99.90;;;;;;5079863;28;20071;-74
2023/03/16 02:13:03;;;;;;;5.82;3.10;;;3.60;99.90;;;;;;5061465;28;20070;-74
2023/03/16 02:15:29;;;;;;;7.32;2.90;;;3.60;99.90;;;;;;5078849;28;20489;-73
2023/03/16 02:17:56;;;;;;;8.60;3.33;;;3.60;99.90;;;;;;5079404;28;20127;-73
2023/03/16 02:21:15;;;;;;;6.00;3.43;;;3.70;99.90;;;;;;5083444;28;20047;-74
2023/03/16 02:23:43;;;;;;;7.13;3.10;;;3.70;99.90;;;;;;5007178;28;20308;-73
2023/03/16 02:26:14;;;;;;;6.85;3.13;;;3.80;99.90;;;;;;5011310;28;20066;-74
2023/03/16 02:29:11;;;;;;;8.45;3.40;;;3.80;99.90;;;;;;5009775;28;20041;-73
2023/03/16 02:31:38;;;;;;;5.28;2.72;;;3.80;99.90;;;;;;5011454;28;20045;-73
2023/03/16 02:34:04;;;;;;;5.55;3.10;;;3.80;99.90;;;;;;5002427;28;20148;-73
2023/03/16 02:36:30;;;;;;;7.15;3.03;;;3.90;99.90;;;;;;5010073;28;20590;-73
2023/03/16 02:38:56;;;;;;;9.55;3.13;;;3.90;99.90;;;;;;5013314;28;20061;-73
2023/03/16 02:41:21;;;;;;;7.72;3.50;;;3.90;99.90;;;;;;5030592;28;20053;-74
2023/03/16 02:43:51;;;;;;;6.97;3.40;;;3.90;99.90;;;;;;5024356;28;20443;-76
2023/03/16 02:46:20;;;;;;;4.80;3.15;;;4.00;99.90;;;;;;5001869;28;20088;-75
2023/03/16 02:48:53;;;;;;;6.57;3.78;;;4.00;99.90;;;;;;5023705;28;20711;-74
2023/03/16 02:51:18;;;;;;;4.60;3.13;;;4.00;99.90;;;;;;5015628;28;20076;-73
2023/03/16 02:53:44;;;;;;;6.07;3.83;;;4.00;99.90;;;;;;5022609;28;20058;-73
2023/03/16 02:56:09;;;;;;;4.45;3.28;;;4.00;99.90;;;;;;5025418;28;20102;-74
2023/03/16 02:58:35;;;;;;;8.13;3.83;;;4.00;99.90;;;;;;5023248;28;20050;-74
2023/03/16 03:01:02;;;;;;;6.85;3.53;;;4.00;99.90;;;;;;5078826;28;20040;-74
2023/03/16 03:03:28;;;;;;;5.38;4.28;;;4.00;99.90;;;;;;5054645;28;20127;-73
2023/03/16 03:05:54;;;;;;;8.93;3.63;;;4.00;99.90;;;;;;5090960;28;20111;-73
2023/03/16 03:08:21;;;;;;;10.05;3.72;;;4.10;99.90;;;;;;5079862;28;20045;-74
2023/03/16 03:10:47;;;;;;;9.53;4.07;;;4.10;99.90;;;;;;5079786;28;20062;-74
2023/03/16 03:13:13;;;;;;;5.40;3.60;;;4.00;99.90;;;;;;5080200;28;20036;-74
2023/03/16 03:15:39;;;;;;;6.53;3.70;;;4.10;99.90;;;;;;5081051;28;20067;-74
2023/03/16 03:18:05;;;;;;;5.55;3.63;;;4.10;99.90;;;;;;5079355;28;20134;-74
2023/03/16 03:20:31;;;;;;;7.43;3.85;;;4.00;99.90;;;;;;5059893;28;20048;-74
2023/03/16 03:22:57;;;;;;;4.88;3.22;;;4.00;99.90;;;;;;5076772;28;20424;-74
2023/03/16 03:25:23;;;;;;;5.32;3.50;;;4.00;99.90;;;;;;5082319;28;20063;-75
2023/03/16 03:27:50;;;;;;;6.70;3.60;;;4.00;99.90;;;;;;5085427;28;20134;-75
2023/03/16 03:30:18;;;;;;;5.15;3.40;;;4.10;99.90;;;;;;5085187;28;20483;-75
2023/03/16 03:32:44;;;;;;;5.47;3.65;;;4.00;99.90;;;;;;5070256;28;20040;-76
2023/03/16 03:35:13;;;;;;;4.75;3.45;;;4.10;99.90;;;;;;5088713;28;20049;-75
2023/03/16 03:37:41;;;;;;;7.28;3.38;;;4.00;99.90;;;;;;5068771;28;20040;-75
2023/03/16 03:40:09;;;;;;;6.82;3.58;;;4.10;99.90;;;;;;5092219;28;20051;-75
2023/03/16 03:42:35;;;;;;;6.38;3.78;;;4.10;99.90;;;;;;5069102;28;20071;-75
2023/03/16 03:45:01;;;;;;;6.55;3.78;;;4.10;99.90;;;;;;5055961;28;20048;-73
2023/03/16 03:47:27;;;;;;;8.25;3.67;;;4.10;99.90;;;;;;5090944;28;20115;-74
2023/03/16 03:49:52;;;;;;;5.35;3.40;;;4.10;99.90;;;;;;5091368;28;20067;-74
2023/03/16 03:52:18;;;;;;;5.00;3.30;;;4.10;99.90;;;;;;5086249;28;20106;-74
2023/03/16 03:54:44;;;;;;;5.53;3.78;;;4.10;99.90;;;;;;5085940;28;20427;-74
2023/03/16 03:57:09;;;;;;;7.75;4.05;;;4.10;99.90;;;;;;5086217;28;20040;-75
2023/03/16 03:59:41;;;;;;;8.52;4.00;;;4.10;99.90;;;;;;5069793;28;20036;-75
2023/03/16 04:02:07;;;;;;;5.65;3.20;;;4.10;99.90;;;;;;5049718;28;20070;-74
2023/03/16 04:04:33;;;;;;;5.15;3.63;;;4.10;99.90;;;;;;5085394;28;20032;-74
2023/03/16 04:06:59;;;;;;;6.80;4.20;;;4.10;99.90;;;;;;5083040;28;20416;-75
2023/03/16 04:09:24;;;;;;;8.88;3.50;;;4.10;99.90;;;;;;5082526;28;20036;-75
2023/03/16 04:11:50;;;;;;;7.25;3.47;;;4.20;99.90;;;;;;5087730;28;20329;-75
2023/03/16 04:14:16;;;;;;;7.57;3.83;;;4.20;99.90;;;;;;5083333;28;20047;-75
2023/03/16 04:16:43;;;;;;;6.03;3.83;;;4.20;99.90;;;;;;5081788;28;20040;-75
2023/03/16 04:19:10;;;;;;;8.15;3.80;;;4.20;99.90;;;;;;5065272;28;20572;-74
2023/03/16 04:21:36;;;;;;;5.90;3.53;;;4.20;99.90;;;;;;5087560;28;20402;-75
2023/03/16 04:24:04;;;;;;;5.22;3.42;;;4.20;99.90;;;;;;5084206;28;20079;-75
2023/03/16 04:26:30;;;;;;;5.93;3.55;;;4.20;99.90;;;;;;5084841;28;20124;-74
2023/03/16 04:28:57;;;;;;;6.47;3.80;;;4.20;99.90;;;;;;5085408;28;20032;-75
2023/03/16 04:31:23;;;;;;;5.03;3.10;;;4.20;99.90;;;;;;5085431;28;20056;-75
2023/03/16 04:33:49;;;;;;;7.80;3.53;;;4.30;99.90;;;;;;5084755;28;20503;-75
2023/03/16 04:36:15;;;;;;;7.82;3.50;;;4.30;99.90;;;;;;5085532;28;20040;-74
2023/03/16 04:38:41;;;;;;;6.82;3.60;;;4.20;99.90;;;;;;5090933;28;20092;-74
2023/03/16 04:41:06;;;;;;;4.53;3.28;;;4.30;99.90;;;;;;5090556;28;20040;-74
2023/03/16 04:43:33;;;;;;;8.18;3.75;;;4.30;99.90;;;;;;5086658;28;20486;-75
2023/03/16 04:46:03;;;;;;;5.82;3.78;;;4.40;99.90;;;;;;5087138;28;20048;-75
2023/03/16 04:48:31;;;;;;;5.18;3.70;;;4.30;99.90;;;;;;5080182;28;20486;-74
2023/03/16 04:50:57;;;;;;;6.40;3.97;;;4.30;99.90;;;;;;5067973;28;20077;-74
2023/03/16 04:53:22;;;;;;;5.00;3.70;;;4.30;99.90;;;;;;5081660;28;20067;-75
2023/03/16 04:55:48;;;;;;;6.72;3.70;;;4.30;99.90;;;;;;5082112;28;20083;-74
2023/03/16 04:58:14;;;;;;;6.75;4.03;;;4.30;99.90;;;;;;5081336;28;20066;-74
2023/03/16 05:00:40;;;;;;;4.20;3.80;;;4.30;99.90;;;;;;5064074;28;20067;-74
2023/03/16 05:03:07;;;;;;;5.05;3.38;;;4.30;99.90;;;;;;5083195;28;20548;-74
2023/03/16 05:05:33;;;;;;;6.93;3.60;;;4.30;99.90;;;;;;5085735;28;20148;-75
2023/03/16 05:08:00;;;;;;;4.85;3.58;;;4.30;99.90;;;;;;5063569;28;20052;-74
2023/03/16 05:10:26;;;;;;;5.82;3.95;;;4.30;99.90;;;;;;5083691;28;20062;-75
2023/03/16 05:12:52;;;;;;;3.75;3.17;;;4.30;99.90;;;;;;5087051;28;20039;-74
2023/03/16 05:15:18;;;;;;;5.82;3.13;;;4.30;99.90;;;;;;5071961;28;20052;-75
2023/03/16 05:17:43;;;;;;;5.28;3.30;;;4.30;99.90;;;;;;5069155;28;20043;-74
2023/03/16 05:20:11;;;;;;;7.40;3.72;;;4.30;99.90;;;;;;5088348;28;20036;-74
2023/03/16 05:22:40;;;;;;;6.28;3.58;;;4.30;99.90;;;;;;5087882;28;20121;-74
2023/03/16 05:25:07;;;;;;;6.95;3.17;;;4.30;99.90;;;;;;5069708;28;20047;-75
2023/03/16 05:27:33;;;;;;;5.05;3.80;;;4.30;99.90;;;;;;5070376;28;20040;-75
2023/03/16 05:30:00;;;;;;;5.38;3.78;;;4.20;99.90;;;;;;5068808;28;20418;-74
2023/03/16 05:32:26;;;;;;;4.32;3.67;;;4.20;99.90;;;;;;5087715;28;20040;-75
2023/03/16 05:34:54;;;;;;;4.80;3.47;;;4.20;99.90;;;;;;5074247;28;20051;-75
2023/03/16 05:37:20;;;;;;;5.43;3.38;;;4.30;99.90;;;;;;5087187;28;20040;-75
2023/03/16 05:39:45;;;;;;;6.38;3.78;;;4.30;99.90;;;;;;5082334;28;20044;-75
2023/03/16 05:42:11;;;;;;;9.45;3.47;;;4.30;99.90;;;;;;5081643;28;20049;-75
2023/03/16 05:44:37;;;;;;;8.05;3.88;;;4.30;99.90;;;;;;5066840;28;20389;-75
2023/03/16 05:47:02;;;;;;;5.95;3.72;;;4.30;99.90;;;;;;5051356;28;20040;-74
2023/03/16 05:49:28;;;;;;;6.05;3.42;;;4.30;99.90;;;;;;5088782;28;20108;-74
2023/03/16 05:51:54;;;;;;;5.53;3.47;;;4.30;99.90;;;;;;5065002;28;20140;-76
2023/03/16 05:54:19;;;;;;;5.40;3.47;;;4.30;99.90;;;;;;5066808;28;20066;-75
2023/03/16 05:56:45;;;;;;;5.22;3.72;;;4.30;99.90;;;;;;5083427;28;20046;-75
2023/03/16 05:59:11;;;;;;;5.60;3.60;;;4.30;99.90;;;;;;5083203;28;20029;-75
2023/03/16 06:01:36;;;;;;;4.78;3.47;;;4.30;99.90;;;;;;5079881;28;20036;-75
2023/03/16 06:04:04;;;;;;;5.82;4.00;;;4.40;99.90;;;;;;5080306;28;20481;-75
2023/03/16 06:06:29;;;;;;;8.23;4.00;;;4.40;99.90;;;;;;5083637;28;20122;-75
2023/03/16 06:08:55;;;;;;;7.68;3.80;;;4.40;99.90;;;;;;5068891;28;20128;-74
2023/03/16 06:11:21;;;;;;;4.80;3.42;;;4.40;99.90;;;;;;5051261;28;20036;-74
2023/03/16 06:13:47;;;;;;;5.95;3.53;;;4.40;99.90;;;;;;5081473;28;20457;-74
2023/03/16 06:16:13;;;;;;;6.65;3.70;;;4.40;99.90;;;;;;5078447;28;20043;-74
2023/03/16 06:18:40;;;;;;;7.53;3.65;;;4.40;99.90;;;;;;5061703;28;20059;-75
2023/03/16 06:21:05;;;;;;;3.97;3.35;;;4.40;99.90;;;;;;5062050;28;20068;-76
2023/03/16 06:23:31;;;;;;;5.25;3.35;;;4.40;99.90;;;;;;5078927;28;20611;-76
2023/03/16 06:25:58;;;;;;;6.18;3.03;;;4.50;99.90;;;;;;5077263;28;20113;-76
2023/03/16 06:28:24;;;;;;;5.93;3.50;;;4.50;99.90;;;;;;5080525;28;20105;-76
2023/03/16 06:30:53;;;;;;;4.82;3.70;;;4.50;99.90;;;;;;5081153;28;20507;-75
2023/03/16 06:33:19;;;;;;;6.18;3.40;;;4.50;99.90;;;;;;5080845;28;20626;-75
2023/03/16 06:35:47;;;;;;;5.93;3.50;;;4.50;99.90;;;;;;5082916;28;20028;-76
2023/03/16 06:38:13;;;;;;;3.90;3.20;;;4.50;99.90;;;;;;5085273;28;20154;-75
2023/03/16 06:40:40;;;;;;;6.38;3.22;;;4.50;99.90;;;;;;5098310;28;20060;-75
2023/03/16 06:43:06;;;;;;;4.68;3.53;;;4.50;99.90;;;;;;5069067;28;20044;-75
2023/03/16 06:45:32;;;;;;;4.50;3.58;;;4.50;99.90;;;;;;5086772;28;20032;-76
2023/03/16 06:47:58;;;;;;;5.22;3.20;;;4.60;99.90;;;;;;5087437;28;20117;-75
2023/03/16 06:50:24;;;;;;;6.03;3.70;;;4.60;99.90;;;;;;5079207;28;20080;-75
2023/03/16 06:52:50;;;;;;;4.63;3.08;;;4.60;99.90;;;;;;5087281;28;20051;-76
2023/03/16 06:55:17;;;;;;;5.97;3.50;;;4.70;99.90;;;;;;5092633;28;20051;-75
2023/03/16 06:57:43;;;;;;;4.25;3.65;;;4.70;99.90;;;;;;5089853;28;20086;-75
2023/03/16 07:00:12;;;;;;;4.57;3.40;;;4.80;99.90;;;;;;5081964;28;20071;-75
2023/03/16 07:02:39;;;;;;;4.63;3.25;;;4.80;99.90;;;;;;5092318;28;20048;-74
2023/03/16 07:05:06;;;;;;;5.22;3.25;;;4.90;99.90;;;;;;5092638;28;20047;-74
2023/03/16 07:07:32;;;;;;;4.55;3.70;;;4.90;99.90;;;;;;5082277;28;20036;-75
2023/03/16 07:09:58;;;;;;;5.40;3.42;;;4.90;99.90;;;;;;5082216;28;20398;-74
2023/03/16 07:12:24;;;;;;;5.30;3.65;;;5.00;99.90;;;;;;5079284;28;20085;-73
2023/03/16 07:14:50;;;;;;;4.63;3.50;;;5.00;99.90;;;;;;5077594;28;20060;-74
2023/03/16 07:17:16;;;;;;;5.63;3.28;;;5.00;99.90;;;;;;5079886;28;20052;-73
2023/03/16 07:19:42;;;;;;;6.50;3.45;;;5.00;99.90;;;;;;5077159;28;20028;-74
2023/03/16 07:22:08;;;;;;;5.13;3.50;;;5.00;99.90;;;;;;5080970;28;20087;-72
2023/03/16 07:24:34;;;;;;;6.53;3.40;;;5.10;99.90;;;;;;5080079;28;20070;-75
2023/03/16 07:27:00;;;;;;;6.07;3.50;;;5.10;99.90;;;;;;5066510;28;20541;-74
2023/03/16 07:29:27;;;;;;;7.10;3.60;;;5.10;99.90;;;;;;5060338;28;20048;-74
2023/03/16 07:31:53;;;;;;;6.03;3.55;;;5.10;99.90;;;;;;5082700;28;20036;-74
2023/03/16 07:34:19;;;;;;;5.32;3.40;;;5.10;99.90;;;;;;5071377;28;20465;-76
2023/03/16 07:36:47;;;;;;;3.85;3.30;;;5.10;99.90;;;;;;5092841;28;20044;-75
2023/03/16 07:39:16;;;;;;;4.18;3.45;;;5.20;99.90;;;;;;5091995;28;20048;-76
2023/03/16 07:41:42;;;;;;;6.72;3.53;;;5.20;99.90;;;;;;5084302;28;20502;-76
2023/03/16 07:44:09;;;;;;;6.03;3.80;;;5.30;99.90;;;;;;5067655;28;20040;-76
2023/03/16 07:46:35;;;;;;;5.70;3.25;;;5.30;99.90;;;;;;5086040;28;20481;-76
2023/03/16 07:49:00;;;;;;;6.20;3.60;;;5.30;99.90;;;;;;5085224;28;20135;-76
2023/03/16 07:51:26;;;;;;;6.03;3.50;;;5.40;99.90;;;;;;5082434;28;20153;-76
2023/03/16 07:53:52;;;;;;;7.88;3.75;;;5.40;99.90;;;;;;5065519;28;20040;-76
2023/03/16 07:56:18;;;;;;;6.43;3.60;;;5.40;99.90;;;;;;5083869;28;20075;-76
2023/03/16 07:58:44;;;;;;;6.32;3.45;;;5.50;99.90;;;;;;5090935;28;20060;-76
2023/03/16 08:01:10;;;;;;;6.32;3.60;;;5.50;99.90;;;;;;5085667;28;20028;-75
2023/03/16 08:03:36;;;;;;;4.88;3.65;;;5.60;99.90;;;;;;5084455;28;20046;-75
2023/03/16 08:06:04;;;;;;;5.53;4.18;;;5.60;99.90;;;;;;5083986;28;20056;-75
2023/03/16 08:08:30;;;;;;;5.20;3.70;;;5.70;99.90;;;;;;5085251;28;20119;-75
2023/03/16 08:10:56;;;;;;;4.85;3.75;;;5.80;99.90;;;;;;5088375;28;20531;-75
2023/03/16 08:13:21;;;;;;;6.00;4.03;;;5.80;99.90;;;;;;5088797;28;20024;-75
2023/03/16 08:16:00;;;;;;;5.30;3.88;;;5.80;99.90;;;;;;5089022;28;20040;-75
2023/03/16 08:18:28;;;;;;;7.75;4.05;;;5.90;99.90;;;;;;5079692;28;20048;-75
2023/03/16 08:20:54;;;;;;;5.68;3.88;;;5.80;99.90;;;;;;5063109;28;20055;-75
2023/03/16 08:23:21;;;;;;;5.90;3.67;;;5.80;99.90;;;;;;5084986;28;20754;-74
2023/03/16 08:25:50;;;;;;;7.05;4.07;;;5.80;99.90;;;;;;5082687;28;20127;-77
2023/03/16 08:28:16;;;;;;;5.90;4.05;;;5.80;99.90;;;;;;5068534;28;20428;-74
2023/03/16 08:30:49;;;;;;;7.80;3.90;;;5.80;99.90;;;;;;5084825;28;20036;-72
2023/03/16 08:33:19;;;;;;;6.40;4.18;;;5.80;99.90;;;;;;5064713;28;20146;-74
2023/03/16 08:35:46;;;;;;;6.18;4.05;;;5.80;99.90;;;;;;5070402;28;20147;-74
2023/03/16 08:38:13;;;;;;;5.80;4.22;;;5.80;99.90;;;;;;5064257;28;20055;-75
2023/03/16 08:40:48;;;;;;;4.70;4.18;;;5.80;99.90;;;;;;5087914;28;20040;-75
2023/03/16 08:43:15;;;;;;;6.32;4.10;;;5.90;99.90;;;;;;5088687;28;20918;-76
2023/03/16 08:45:44;;;;;;;7.63;4.25;;;5.90;99.90;;;;;;5086806;28;20040;-75
2023/03/16 08:48:11;;;;;;;6.28;4.18;;;5.90;99.90;;;;;;5087870;28;20052;-75
2023/03/16 08:50:40;;;;;;;5.88;4.43;;;5.90;99.90;;;;;;5089453;28;20056;-75
2023/03/16 08:53:06;;;;;;;;;;;5.90;99.90;;;;;;5086457;28;20176;-76
2023/03/16 08:55:31;;;;;;;5.55;4.32;;;6.00;99.90;;;;;;5082323;28;19932;-75
2023/03/16 08:57:57;;;;;;;6.43;4.43;;;6.00;99.90;;;;;;5075007;28;20055;-75
2023/03/16 09:00:23;;;;;;;7.50;4.72;;;6.10;99.90;;;;;;5075650;28;20483;-75
2023/03/16 09:02:49;;;;;;;4.88;4.35;;;6.10;99.90;;;;;;5075300;28;20060;-75
2023/03/16 09:05:15;;;;;;;7.63;4.97;;;6.10;99.90;;;;;;5074744;28;20391;-75
2023/03/16 09:07:41;;;;;;;7.70;5.10;;;6.10;99.90;;;;;;5086002;28;20047;-75
2023/03/16 09:10:07;;;;;;;6.65;4.45;;;6.10;99.90;;;;;;5094055;28;20040;-75
2023/03/16 09:12:36;;;;;;;6.95;4.63;;;6.10;99.90;;;;;;5093408;28;20047;-75
2023/03/16 09:15:01;;;;;;;6.45;4.72;;;6.20;99.90;;;;;;5092793;28;20070;-75
2023/03/16 09:17:27;;;;;;;7.20;5.00;;;6.20;99.90;;;;;;5093236;28;20055;-75
2023/03/16 09:19:54;;;;;;;4.78;4.28;;;6.20;99.90;;;;;;5092851;28;20375;-75
2023/03/16 09:22:20;;;;;;;5.97;4.53;;;6.20;99.90;;;;;;5073207;28;20056;-75
2023/03/16 09:24:47;;;;;;;7.63;4.75;;;6.20;99.90;;;;;;5101927;28;20047;-76
2023/03/16 09:27:14;;;;;;;8.93;4.97;;;6.30;99.90;;;;;;5093298;28;20398;-76
2023/03/16 09:29:41;;;;;;;5.47;4.97;;;6.20;99.90;;;;;;5076130;28;20164;-76
2023/03/16 09:32:08;;;;;;;5.90;4.32;;;6.30;99.90;;;;;;5073493;28;20052;-76
2023/03/16 09:34:33;;;;;;;6.38;5.30;;;6.30;99.90;;;;;;5074840;28;20039;-76
2023/03/16 09:37:00;;;;;;;7.72;5.32;;;6.30;99.90;;;;;;5094492;28;20040;-76
2023/03/16 09:39:25;;;;;;;8.23;5.22;;;6.30;99.90;;;;;;5073032;28;20044;-76
2023/03/16 09:42:03;;;;;;;8.85;5.25;;;6.30;99.90;;;;;;5103500;28;20043;-76
2023/03/16 09:44:46;;;;;;;6.72;5.10;;;6.30;99.90;;;;;;5088891;28;20040;-76
2023/03/16 09:47:15;;;;;;;6.25;5.10;;;6.40;99.90;;;;;;5072119;28;20131;-76
2023/03/16 09:49:49;;;;;;;8.02;5.45;;;6.40;99.90;;;;;;5078153;28;20495;-76
2023/03/16 09:52:33;;;;;;;7.63;5.25;;;6.40;99.90;;;;;;5090737;28;20048;-76
2023/03/16 09:55:19;;;;;;;9.82;5.47;;;6.40;99.90;;;;;;5093877;28;20135;-76
2023/03/16 09:57:46;;;;;;;8.57;5.20;;;6.50;99.90;;;;;;5074344;28;20436;-77
2023/03/16 10:00:21;;;;;;;7.55;5.63;;;6.50;99.90;;;;;;5103458;28;20040;-77
2023/03/16 10:03:27;;;;;;;6.32;5.30;;;6.50;99.90;;;;;;5064658;28;20040;-76
2023/03/16 10:06:02;;;;;;;7.15;5.28;;;6.50;99.90;;;;;;5081435;28;20048;-76
2023/03/16 10:08:40;;;;;;;8.75;5.82;;;6.50;99.90;;;;;;5072526;28;20363;-76
2023/03/16 10:11:22;;;;;;;6.45;5.15;;;6.50;99.90;;;;;;5093848;28;20047;-76
2023/03/16 10:14:26;;;;;;;9.77;5.68;;;6.40;99.90;;;;;;5067241;28;20091;-77
2023/03/16 10:17:00;;;;;;;5.90;5.30;;;6.50;99.90;;;;;;5091937;28;20044;-77
2023/03/16 10:19:38;;;;;;;10.05;5.90;;;6.50;99.90;;;;;;5077905;28;20079;-77
2023/03/16 10:22:12;;;;;;;;;;;6.50;99.90;;;;;;5092181;28;20481;-77
2023/03/16 10:25:04;;;;;;;8.82;5.22;;;6.50;99.90;;;;;;5084933;28;19950;-77
2023/03/16 10:27:38;;;;;;;8.38;5.40;;;6.60;99.90;;;;;;5087428;28;20051;-77
2023/03/16 10:30:18;;;;;;;9.43;4.85;;;6.70;99.90;;;;;;5091890;28;20044;-77
2023/03/16 10:32:45;;;;;;;7.30;5.32;;;6.70;99.90;;;;;;5074130;28;20051;-77
2023/03/16 10:35:18;;;;;;;7.22;5.40;;;6.80;99.90;;;;;;5090482;28;20031;-77
2023/03/16 10:37:45;;;;;;;7.25;5.20;;;6.90;99.90;;;;;;5072640;28;20441;-77
2023/03/16 10:40:11;;;;;;;9.30;4.38;;;6.90;99.90;;;;;;5088030;28;20123;-77
2023/03/16 10:42:38;;;;;;;6.35;4.78;;;6.90;99.90;;;;;;5113513;28;20035;-77
2023/03/16 10:45:04;;;;;;;11.05;5.88;;;7.00;99.90;;;;;;5081760;28;20119;-77
2023/03/16 10:47:32;;;;;;;5.68;4.40;;;7.00;99.90;;;;;;5092888;28;20093;-77
2023/03/16 10:50:10;;;;;;;8.23;5.00;;;7.10;99.90;;;;;;5092286;28;20556;-77
2023/03/16 10:52:43;;;;;;;5.82;4.43;;;7.10;99.90;;;;;;5073857;28;20040;-76
2023/03/16 10:55:23;;;;;;;7.38;5.00;;;7.10;99.90;;;;;;5092689;28;20043;-76
2023/03/16 10:57:52;;;;;;;5.47;4.43;;;7.10;99.90;;;;;;5091747;28;20040;-76
2023/03/16 11:00:33;;;;;;;7.55;4.75;;;7.20;99.90;;;;;;5074296;28;20088;-76
2023/03/16 11:03:00;;;;;;;5.05;3.95;;;7.30;99.90;;;;;;5089833;28;20126;-76
2023/03/16 11:05:32;;;;;;;6.50;4.32;;;7.30;99.90;;;;;;5092829;28;20040;-76
2023/03/16 11:08:12;;;;;;;8.25;3.83;;;7.30;99.90;;;;;;5098129;28;20044;-76
2023/03/16 11:10:52;;;;;;;6.85;3.95;;;7.40;99.90;;;;;;5090872;28;20560;-76
2023/03/16 11:13:19;;;;;;;7.15;4.38;;;7.40;99.90;;;;;;5089275;28;20490;-76
2023/03/16 11:16:10;;;;;;;6.47;4.07;;;7.40;99.90;;;;;;5091701;28;20439;-76
2023/03/16 11:18:42;;;;;;;7.88;3.88;;;7.50;99.90;;;;;;5089448;28;20036;-76
2023/03/16 11:21:45;;;;;;;8.18;3.88;;;7.50;99.90;;;;;;5091313;28;20028;-76
2023/03/16 11:24:35;;;;;;;6.65;3.90;;;7.60;99.90;;;;;;5058620;28;20101;-76
2023/03/16 11:27:07;;;;;;;4.22;3.78;;;7.70;99.90;;;;;;5037754;28;20140;-76
2023/03/16 11:29:57;;;;;;;5.03;3.83;;;7.70;99.90;;;;;;5091237;28;20048;-76
2023/03/16 11:32:36;;;;;;;5.38;3.65;;;7.80;99.90;;;;;;5091807;28;20062;-76
2023/03/16 11:35:16;;;;;;;5.22;3.28;;;7.80;99.90;;;;;;5090194;28;20549;-76
2023/03/16 11:38:03;;;;;;;6.20;3.10;;;8.00;99.90;;;;;;5090216;28;20551;-77
2023/03/16 11:40:59;;;;;;;4.75;3.47;;;8.10;99.90;;;;;;5097168;28;20086;-76
2023/03/16 11:43:40;;;;;;;4.07;3.60;;;8.20;99.90;;;;;;5093178;28;20112;-76
2023/03/16 11:46:12;;;;;;;5.55;3.42;;;8.30;99.90;;;;;;5091430;28;20062;-76
2023/03/16 11:49:20;;;;;;;6.25;3.25;;;8.40;99.90;;;;;;5071692;28;20071;-76
2023/03/16 11:52:07;;;;;;;4.65;3.65;;;8.40;99.90;;;;;;5077199;28;20044;-76
2023/03/16 11:55:00;;;;;;;5.80;3.85;;;8.40;99.90;;;;;;5080855;28;20071;-76
2023/03/16 11:57:57;;;;;;;5.38;3.50;;;8.40;99.90;;;;;;5096243;28;20117;-76
2023/03/16 12:00:26;;;;;;;;;;;8.40;99.90;;;;;;4988361;28;20425;-76
2023/03/16 12:03:23;;;;;;;4.85;3.40;;;8.60;99.90;;;;;;4992713;28;19925;-76
2023/03/16 12:06:37;;;;;;;5.57;3.47;;;8.70;99.90;;;;;;4992178;28;20405;-76
2023/03/16 12:09:46;;;;;;;5.10;3.58;;;8.90;99.90;;;;;;4967946;28;20101;-76
2023/03/16 12:12:57;;;;;;;5.43;3.67;;;9.00;99.90;;;;;;4993540;28;20386;-76
2023/03/16 12:15:40;;;;;;;5.95;3.60;;;9.10;99.90;;;;;;4935208;29;20059;-76
2023/03/16 12:18:18;;;;;;;5.28;3.42;;;9.40;99.90;;;;;;4918634;29;20502;-76
2023/03/16 12:21:03;;;;;;;3.80;3.35;;;9.60;99.90;;;;;;4935087;29;20059;-76
2023/03/16 12:23:47;;;;;;;7.50;3.72;;;9.80;99.90;;;;;;4922376;29;20063;-76
2023/03/16 12:26:13;;;;;;;4.47;3.17;;;9.70;99.90;;;;;;4936017;29;20063;-76
2023/03/16 12:28:41;;;;;;;3.83;3.28;;;9.70;99.90;;;;;;4934824;29;20123;-76
2023/03/16 12:31:12;;;;;;;5.25;3.28;;;9.70;99.90;;;;;;4907266;29;20379;-76
2023/03/16 12:33:41;;;;;;;5.00;3.50;;;9.60;99.90;;;;;;4938658;29;20071;-76
2023/03/16 12:36:16;;;;;;;4.13;3.22;;;9.70;99.90;;;;;;4988000;28;20103;-76
2023/03/16 12:39:04;;;;;;;4.32;3.22;;;9.70;99.90;;;;;;5027729;28;20061;-76
2023/03/16 12:41:49;;;;;;;4.07;3.13;;;9.80;99.90;;;;;;5046541;28;20048;-76
2023/03/16 12:44:35;;;;;;;4.35;3.05;;;9.70;99.90;;;;;;5004962;28;20092;-76
2023/03/16 12:47:16;;;;;;;5.35;3.38;;;9.60;99.90;;;;;;5032853;28;20065;-76
2023/03/16 12:49:42;;;;;;;4.00;2.83;;;9.60;99.90;;;;;;5043414;28;20297;-76
2023/03/16 12:52:11;;;;;;;7.47;3.58;;;9.60;99.90;;;;;;5073060;28;20123;-76
2023/03/16 12:54:52;;;;;;;3.45;3.13;;;9.60;99.90;;;;;;5095349;28;20036;-76
2023/03/16 12:57:19;;;;;;;4.32;3.15;;;9.60;99.90;;;;;;5094830;28;20043;-76
2023/03/16 12:59:49;;;;;;;4.55;3.03;;;9.70;99.90;;;;;;5095114;28;20036;-76
2023/03/16 13:02:23;;;;;;;3.42;3.10;;;9.70;99.90;;;;;;5095084;28;20067;-76
2023/03/16 13:04:58;;;;;;;4.10;3.40;;;9.70;99.90;;;;;;5094818;28;20405;-76
2023/03/16 13:07:26;;;;;;;4.47;3.40;;;9.60;99.90;;;;;;5103749;28;20119;-76
2023/03/16 13:09:55;;;;;;;;;;;9.60;99.90;;;;;;5093853;28;20040;-76
2023/03/16 13:12:35;;;;;;;5.40;3.58;;;9.60;99.90;;;;;;5092478;28;20289;-76
2023/03/16 13:15:15;;;;;;;5.63;3.40;;;9.60;99.90;;;;;;5090773;28;20094;-76